createdAt,value
2018-08-11T00:00:35.162Z,51.43
2018-08-11T00:01:35.141Z,51.05
2018-08-11T00:02:35.115Z,51.35
2018-08-11T00:03:35.101Z,51.55
2018-08-11T00:04:35.881Z,51.35
2018-08-11T00:05:35.106Z,51.55
2018-08-11T00:06:35.063Z,51.55
2018-08-11T00:07:35.115Z,51.65
2018-08-11T00:08:35.127Z,51.45
2018-08-11T00:09:35.027Z,51.45
2018-08-11T00:10:35.048Z,51.53
2018-08-11T00:11:35.053Z,51.15
2018-08-11T00:12:34.999Z,51.15
2018-08-11T00:13:34.992Z,51.43
2018-08-11T00:14:35.020Z,51.32
2018-08-11T00:15:35.046Z,50.95
2018-08-11T00:16:35.020Z,51.43
2018-08-11T00:17:34.947Z,51.53
2018-08-11T00:18:35.852Z,51.43
2018-08-11T00:19:34.910Z,51.43
2018-08-11T00:20:35.033Z,51.43
2018-08-11T00:21:35.303Z,51.73
2018-08-11T00:22:34.963Z,51.43
2018-08-11T00:23:34.869Z,51.32
2018-08-11T00:24:34.854Z,51.43
2018-08-11T00:25:35.521Z,51.73
2018-08-11T00:26:34.919Z,51.73
2018-08-11T00:27:34.863Z,51.55
2018-08-11T00:28:34.917Z,51.63
2018-08-11T00:29:34.800Z,51.73
2018-08-11T00:30:34.931Z,51.93
2018-08-11T00:31:34.772Z,51.83
2018-08-11T00:32:34.822Z,51.53
2018-08-11T00:33:34.758Z,51.73
2018-08-11T00:34:34.787Z,51.63
2018-08-11T00:35:34.758Z,51.86
2018-08-11T00:36:34.792Z,51.83
2018-08-11T00:37:34.704Z,51.93
2018-08-11T00:38:34.689Z,51.83
2018-08-11T00:39:34.692Z,51.83
2018-08-11T00:40:34.693Z,51.93
2018-08-11T00:41:34.662Z,51.83
2018-08-11T00:42:34.651Z,51.93
2018-08-11T00:43:34.630Z,51.93
2018-08-11T00:44:34.623Z,51.73
2018-08-11T00:45:34.633Z,51.63
2018-08-11T00:46:34.599Z,52.03
2018-08-11T00:47:34.591Z,51.73
2018-08-11T00:48:34.578Z,51.53
2018-08-11T00:49:34.653Z,51.83
2018-08-11T00:50:34.582Z,51.43
2018-08-11T00:51:34.546Z,51.32
2018-08-11T00:52:34.526Z,51.63
2018-08-11T00:53:34.523Z,53.45
2018-08-11T00:54:34.503Z,54.74
2018-08-11T00:55:34.525Z,56.68
2018-08-11T00:56:34.491Z,57.79
2018-08-11T00:57:34.468Z,58.20
2018-08-11T00:58:34.465Z,56.98
2018-08-11T00:59:34.444Z,56.88
2018-08-11T01:00:34.455Z,55.57
2018-08-11T01:01:34.424Z,57.69
2018-08-11T01:02:34.415Z,58.73
2018-08-11T01:03:34.401Z,56.51
2018-08-11T01:04:34.396Z,56.61
2018-08-11T01:05:34.400Z,59.64
2018-08-11T01:06:34.367Z,57.95
2018-08-11T01:07:34.351Z,56.02
2018-08-11T01:08:34.344Z,56.40
2018-08-11T01:09:34.333Z,55.69
2018-08-11T01:10:34.350Z,55.40
2018-08-11T01:11:34.305Z,55.40
2018-08-11T01:12:34.298Z,53.98
2018-08-11T01:13:34.284Z,54.58
2018-08-11T01:14:34.269Z,55.69
2018-08-11T01:15:34.289Z,53.67
2018-08-11T01:16:34.249Z,54.28
2018-08-11T01:17:34.235Z,54.49
2018-08-11T01:18:34.240Z,53.88
2018-08-11T01:19:34.211Z,54.38
2018-08-11T01:20:34.230Z,54.56
2018-08-11T01:21:34.189Z,55.98
2018-08-11T01:22:34.176Z,56.58
2018-08-11T01:23:34.169Z,56.07
2018-08-11T01:24:34.154Z,56.96
2018-08-11T01:25:34.174Z,57.39
2018-08-11T01:26:34.136Z,55.14
2018-08-11T01:27:34.121Z,56.85
2018-08-11T01:28:34.116Z,55.36
2018-08-11T01:29:34.095Z,55.85
2018-08-11T01:30:34.111Z,57.97
2018-08-11T01:31:34.078Z,55.34
2018-08-11T01:32:34.059Z,55.94
2018-08-11T01:33:34.054Z,57.06
2018-08-11T01:34:34.038Z,56.35
2018-08-11T01:35:34.053Z,55.32
2018-08-11T01:36:34.023Z,56.43
2018-08-11T01:37:34.005Z,56.85
2018-08-11T01:38:33.991Z,56.93
2018-08-11T01:39:33.987Z,58.17
2018-08-11T01:40:33.990Z,56.02
2018-08-11T01:41:33.961Z,56.02
2018-08-11T01:42:33.949Z,55.82
2018-08-11T01:43:33.965Z,55.92
2018-08-11T01:44:33.928Z,55.82
2018-08-11T01:45:33.908Z,57.43
2018-08-11T01:46:33.898Z,62.21
2018-08-11T01:47:33.891Z,61.00
2018-08-11T01:48:33.872Z,60.49
2018-08-11T01:49:33.893Z,58.50
2018-08-11T01:50:33.852Z,59.71
2018-08-11T01:51:33.840Z,62.27
2018-08-11T01:52:33.837Z,68.54
2018-08-11T01:53:33.821Z,69.89
2018-08-11T01:54:33.844Z,73.05
2018-08-11T01:55:33.790Z,69.81
2018-08-11T01:56:33.786Z,76.83
2018-08-11T01:57:33.773Z,75.55
2018-08-11T01:58:33.764Z,78.19
2018-08-11T01:59:33.745Z,75.79
2018-08-11T02:00:33.771Z,72.85
2018-08-11T02:01:33.726Z,77.72
2018-08-11T02:02:33.711Z,77.04
2018-08-11T02:03:33.708Z,81.81
2018-08-11T02:04:33.691Z,82.96
2018-08-11T02:05:33.682Z,82.96
2018-08-11T02:06:33.700Z,79.65
2018-08-11T02:07:33.653Z,73.66
2018-08-11T02:08:33.648Z,76.81
2018-08-11T02:09:33.639Z,78.23
2018-08-11T02:10:33.628Z,77.32
2018-08-11T02:11:33.611Z,79.38
2018-08-11T02:12:33.634Z,80.19
2018-08-11T02:13:33.588Z,78.06
2018-08-11T02:14:33.579Z,85.11
2018-08-11T02:15:33.565Z,87.14
2018-08-11T02:16:33.556Z,81.49
2018-08-11T02:17:33.546Z,87.99
2018-08-11T02:18:33.554Z,90.27
2018-08-11T02:19:33.522Z,84.99
2018-08-11T02:20:33.510Z,86.76
2018-08-11T02:21:33.495Z,88.59
2018-08-11T02:22:33.487Z,90.22
2018-08-11T02:23:33.505Z,91.13
2018-08-11T02:24:33.467Z,91.13
2018-08-11T02:25:33.446Z,91.94
2018-08-11T02:26:33.443Z,91.94
2018-08-11T02:27:33.425Z,89.30
2018-08-11T02:28:33.422Z,90.52
2018-08-11T02:29:33.435Z,91.53
2018-08-11T02:30:33.398Z,92.86
2018-08-11T02:31:33.377Z,92.70
2018-08-11T02:32:33.363Z,92.86
2018-08-11T02:33:33.366Z,92.40
2018-08-11T02:34:33.342Z,92.90
2018-08-11T02:35:33.377Z,93.41
2018-08-11T02:36:33.323Z,92.60
2018-08-11T02:37:33.313Z,92.49
2018-08-11T02:38:33.298Z,93.62
2018-08-11T02:39:33.290Z,92.49
2018-08-11T02:40:33.279Z,93.10
2018-08-11T02:41:33.302Z,93.66
2018-08-11T02:42:33.248Z,93.55
2018-08-11T02:43:33.246Z,93.66
2018-08-11T02:44:33.227Z,93.86
2018-08-11T02:45:33.222Z,93.35
2018-08-11T02:46:33.216Z,93.70
2018-08-11T02:47:33.225Z,93.76
2018-08-11T02:48:33.188Z,93.66
2018-08-11T02:49:33.166Z,93.66
2018-08-11T02:50:33.157Z,93.40
2018-08-11T02:51:33.149Z,93.80
2018-08-11T02:52:33.131Z,93.50
2018-08-11T02:53:33.151Z,93.09
2018-08-11T02:54:33.107Z,92.79
2018-08-11T02:55:33.099Z,93.60
2018-08-11T02:56:33.088Z,93.29
2018-08-11T02:57:33.078Z,93.70
2018-08-11T02:58:33.096Z,93.60
2018-08-11T02:59:33.055Z,93.40
2018-08-11T03:00:33.049Z,94.72
2018-08-11T03:01:33.027Z,94.42
2018-08-11T03:02:33.061Z,94.62
2018-08-11T03:03:33.009Z,91.61
2018-08-11T03:04:33.057Z,91.87
2018-08-11T03:05:32.989Z,92.38
2018-08-11T03:06:32.976Z,92.99
2018-08-11T03:07:32.972Z,93.70
2018-08-11T03:08:32.954Z,93.50
2018-08-11T03:09:32.958Z,95.03
2018-08-11T03:10:32.925Z,95.03
2018-08-11T03:11:32.909Z,94.52
2018-08-11T03:12:32.911Z,94.72
2018-08-11T03:13:32.896Z,95.23
2018-08-11T03:14:32.908Z,94.31
2018-08-11T03:15:32.873Z,95.23
2018-08-11T03:16:32.854Z,95.13
2018-08-11T03:17:32.851Z,94.62
2018-08-11T03:18:32.829Z,95.23
2018-08-11T03:19:32.831Z,95.03
2018-08-11T03:20:32.839Z,94.82
2018-08-11T03:21:32.795Z,95.13
2018-08-11T03:22:32.792Z,95.33
2018-08-11T03:23:32.773Z,95.33
2018-08-11T03:24:32.767Z,96.66
2018-08-11T03:25:32.779Z,96.61
2018-08-11T03:26:32.742Z,96.15
2018-08-11T03:27:32.733Z,96.45
2018-08-11T03:28:32.716Z,96.51
2018-08-11T03:29:32.708Z,95.43
2018-08-11T03:30:32.731Z,95.43
2018-08-11T03:31:32.680Z,95.43
2018-08-11T03:32:32.676Z,95.94
2018-08-11T03:33:32.654Z,95.53
2018-08-11T03:34:32.668Z,95.53
2018-08-11T03:35:32.632Z,95.33
2018-08-11T03:36:32.643Z,95.39
2018-08-11T03:37:32.616Z,96.04
2018-08-11T03:38:32.596Z,95.74
2018-08-11T03:39:32.592Z,95.13
2018-08-11T03:40:32.579Z,95.33
2018-08-11T03:41:32.598Z,95.53
2018-08-11T03:42:32.555Z,95.43
2018-08-11T03:43:32.542Z,95.94
2018-08-11T03:44:32.526Z,95.43
2018-08-11T03:45:32.528Z,95.84
2018-08-11T03:46:32.507Z,95.84
2018-08-11T03:47:32.520Z,95.53
2018-08-11T03:48:32.485Z,95.94
2018-08-11T03:49:32.467Z,95.43
2018-08-11T03:50:32.459Z,95.58
2018-08-11T03:51:32.481Z,95.28
2018-08-11T03:52:32.500Z,94.97
2018-08-11T03:53:32.422Z,95.17
2018-08-11T03:54:32.409Z,94.35
2018-08-11T03:55:32.399Z,94.26
2018-08-11T03:56:32.390Z,94.76
2018-08-11T03:57:32.396Z,94.97
2018-08-11T03:58:32.357Z,94.30
2018-08-11T03:59:32.355Z,94.05
2018-08-11T04:00:32.344Z,94.05
2018-08-11T04:01:32.338Z,94.56
2018-08-11T04:02:32.352Z,94.50
2018-08-11T04:03:32.300Z,94.97
2018-08-11T04:04:32.297Z,94.81
2018-08-11T04:05:32.275Z,94.40
2018-08-11T04:06:32.309Z,93.59
2018-08-11T04:07:32.256Z,93.89
2018-08-11T04:08:32.265Z,93.99
2018-08-11T04:09:32.236Z,94.71
2018-08-11T04:10:32.221Z,94.60
2018-08-11T04:11:32.206Z,94.81
2018-08-11T04:12:32.195Z,94.81
2018-08-11T04:13:32.222Z,94.91
2018-08-11T04:14:32.177Z,94.71
2018-08-11T04:15:32.161Z,95.16
2018-08-11T04:16:32.142Z,94.95
2018-08-11T04:17:32.144Z,95.26
2018-08-11T04:18:32.123Z,94.65
2018-08-11T04:19:32.150Z,95.26
2018-08-11T04:20:32.096Z,94.65
2018-08-11T04:21:32.092Z,94.95
2018-08-11T04:22:32.072Z,94.95
2018-08-11T04:23:32.069Z,95.36
2018-08-11T04:24:32.059Z,95.36
2018-08-11T04:25:32.061Z,95.57
2018-08-11T04:26:32.035Z,95.26
2018-08-11T04:27:32.012Z,95.77
2018-08-11T04:28:32.009Z,95.36
2018-08-11T04:29:31.992Z,95.36
2018-08-11T04:30:32.007Z,94.65
2018-08-11T04:31:31.969Z,94.85
2018-08-11T04:32:31.955Z,94.60
2018-08-11T04:33:31.945Z,94.50
2018-08-11T04:34:31.942Z,95.47
2018-08-11T04:35:31.947Z,94.85
2018-08-11T04:36:31.948Z,94.14
2018-08-11T04:37:31.894Z,93.84
2018-08-11T04:38:31.894Z,93.79
2018-08-11T04:39:31.869Z,93.38
2018-08-11T04:40:31.860Z,93.38
2018-08-11T04:41:31.860Z,93.89
2018-08-11T04:42:31.857Z,93.73
2018-08-11T04:43:31.833Z,93.63
2018-08-11T04:44:31.814Z,93.89
2018-08-11T04:45:31.808Z,94.20
2018-08-11T04:46:31.792Z,94.09
2018-08-11T04:47:31.801Z,93.69
2018-08-11T04:48:31.772Z,93.28
2018-08-11T04:49:31.763Z,93.59
2018-08-11T04:50:31.747Z,93.89
2018-08-11T04:51:31.733Z,93.99
2018-08-11T04:52:31.757Z,94.09
2018-08-11T04:53:31.711Z,93.69
2018-08-11T04:54:31.701Z,93.69
2018-08-11T04:55:31.686Z,93.89
2018-08-11T04:56:31.675Z,93.64
2018-08-11T04:57:31.668Z,93.38
2018-08-11T04:58:31.682Z,93.95
2018-08-11T04:59:31.655Z,93.03
2018-08-11T05:00:31.629Z,92.72
2018-08-11T05:01:31.620Z,92.83
2018-08-11T05:02:31.612Z,94.05
2018-08-11T05:03:31.591Z,94.15
2018-08-11T05:04:31.607Z,94.46
2018-08-11T05:05:31.577Z,94.87
2018-08-11T05:06:31.563Z,94.97
2018-08-11T05:07:31.549Z,94.66
2018-08-11T05:08:31.565Z,94.56
2018-08-11T05:09:31.545Z,95.33
2018-08-11T05:10:31.517Z,95.03
2018-08-11T05:11:31.503Z,95.28
2018-08-11T05:12:31.496Z,95.23
2018-08-11T05:13:31.477Z,95.43
2018-08-11T05:14:31.488Z,95.84
2018-08-11T05:15:31.461Z,95.64
2018-08-11T05:16:31.448Z,95.53
2018-08-11T05:17:31.435Z,95.13
2018-08-11T05:18:31.459Z,95.23
2018-08-11T05:19:31.413Z,95.13
2018-08-11T05:20:31.408Z,94.52
2018-08-11T05:21:31.385Z,94.21
2018-08-11T05:22:31.382Z,94.42
2018-08-11T05:23:31.362Z,94.21
2018-08-11T05:24:31.387Z,94.37
2018-08-11T05:25:31.343Z,94.47
2018-08-11T05:26:31.335Z,94.88
2018-08-11T05:27:31.334Z,94.57
2018-08-11T05:28:31.305Z,94.37
2018-08-11T05:29:31.327Z,93.96
2018-08-11T05:30:31.289Z,94.07
2018-08-11T05:31:31.275Z,94.57
2018-08-11T05:32:31.269Z,93.96
2018-08-11T05:33:31.256Z,91.56
2018-08-11T05:34:31.269Z,92.33
2018-08-11T05:35:31.224Z,93.21
2018-08-11T05:36:31.226Z,93.66
2018-08-11T05:37:31.205Z,93.51
2018-08-11T05:38:31.196Z,92.70
2018-08-11T05:39:31.206Z,92.60
2018-08-11T05:40:31.168Z,89.95
2018-08-11T05:41:31.195Z,92.09
2018-08-11T05:42:31.148Z,92.49
2018-08-11T05:43:31.143Z,91.68
2018-08-11T05:44:31.153Z,91.99
2018-08-11T05:45:31.111Z,88.63
2018-08-11T05:46:31.108Z,89.95
2018-08-11T05:47:31.093Z,90.46
2018-08-11T05:48:31.092Z,91.99
2018-08-11T05:49:31.099Z,91.99
2018-08-11T05:50:31.060Z,91.13
2018-08-11T05:51:31.045Z,92.19
2018-08-11T05:52:31.033Z,91.43
2018-08-11T05:53:31.027Z,91.94
2018-08-11T05:54:31.017Z,91.64
2018-08-11T05:55:31.018Z,92.14
2018-08-11T05:56:30.987Z,91.74
2018-08-11T05:57:30.974Z,91.60
2018-08-11T05:58:30.965Z,91.84
2018-08-11T05:59:30.955Z,91.60
2018-08-11T06:00:30.977Z,90.17
2018-08-11T06:01:30.928Z,89.46
2018-08-11T06:02:30.920Z,88.95
2018-08-11T06:03:30.912Z,88.95
2018-08-11T06:04:30.901Z,89.66
2018-08-11T06:05:30.878Z,87.02
2018-08-11T06:06:30.916Z,86.61
2018-08-11T06:07:30.855Z,89.36
2018-08-11T06:08:30.843Z,88.85
2018-08-11T06:09:30.842Z,84.58
2018-08-11T06:10:30.872Z,86.47
2018-08-11T06:11:30.820Z,85.76
2018-08-11T06:12:30.826Z,86.07
2018-08-11T06:13:30.788Z,86.77
2018-08-11T06:14:30.780Z,85.35
2018-08-11T06:15:30.766Z,85.96
2018-08-11T06:16:30.753Z,84.54
2018-08-11T06:17:30.767Z,86.02
2018-08-11T06:18:30.729Z,84.30
2018-08-11T06:19:30.723Z,88.46
2018-08-11T06:20:30.703Z,89.88
2018-08-11T06:21:30.701Z,88.87
2018-08-11T06:22:30.719Z,89.17
2018-08-11T06:23:30.673Z,88.36
2018-08-11T06:24:30.665Z,89.68
2018-08-11T06:25:30.644Z,90.09
2018-08-11T06:26:30.638Z,88.76
2018-08-11T06:27:30.627Z,88.97
2018-08-11T06:28:30.637Z,87.34
2018-08-11T06:29:30.606Z,84.30
2018-08-11T06:30:30.595Z,85.72
2018-08-11T06:31:30.619Z,86.83
2018-08-11T06:32:30.568Z,88.06
2018-08-11T06:33:30.588Z,85.62
2018-08-11T06:34:30.539Z,87.04
2018-08-11T06:35:30.539Z,87.71
2018-08-11T06:36:30.519Z,88.01
2018-08-11T06:37:30.510Z,85.58
2018-08-11T06:38:30.502Z,87.24
2018-08-11T06:39:30.514Z,84.56
2018-08-11T06:40:30.511Z,88.32
2018-08-11T06:41:30.461Z,85.94
2018-08-11T06:42:30.456Z,84.66
2018-08-11T06:43:30.443Z,86.08
2018-08-11T06:44:30.424Z,87.16
2018-08-11T06:45:30.448Z,88.07
2018-08-11T06:46:30.427Z,88.07
2018-08-11T06:47:30.394Z,87.26
2018-08-11T06:48:30.386Z,85.53
2018-08-11T06:49:30.380Z,83.67
2018-08-11T06:50:30.359Z,81.64
2018-08-11T06:51:30.374Z,79.72
2018-08-11T06:52:30.338Z,81.13
2018-08-11T06:53:30.327Z,82.01
2018-08-11T06:54:30.315Z,79.68
2018-08-11T06:55:30.352Z,78.87
2018-08-11T06:56:30.288Z,83.83
2018-08-11T06:57:30.304Z,83.63
2018-08-11T06:58:30.266Z,84.50
2018-08-11T06:59:30.266Z,82.58
2018-08-11T07:00:30.249Z,81.77
2018-08-11T07:01:30.235Z,81.50
2018-08-11T07:02:30.255Z,79.94
2018-08-11T07:03:30.208Z,80.35
2018-08-11T07:04:30.199Z,82.98
2018-08-11T07:05:30.195Z,82.78
2018-08-11T07:06:30.210Z,81.87
2018-08-11T07:07:30.195Z,83.39
2018-08-11T07:08:30.195Z,82.44
2018-08-11T07:09:30.141Z,82.64
2018-08-11T07:10:30.133Z,82.44
2018-08-11T07:11:30.114Z,82.95
2018-08-11T07:12:30.100Z,83.55
2018-08-11T07:13:30.131Z,82.30
2018-08-11T07:14:30.085Z,81.69
2018-08-11T07:15:30.070Z,79.97
2018-08-11T07:16:30.055Z,80.13
2018-08-11T07:17:30.053Z,79.83
2018-08-11T07:18:30.376Z,80.84
2018-08-11T07:19:30.049Z,78.78
2018-08-11T07:20:30.188Z,80.64
2018-08-11T07:21:29.999Z,79.08
2018-08-11T07:22:29.991Z,80.30
2018-08-11T07:23:29.981Z,81.21
2018-08-11T07:24:29.996Z,76.76
2018-08-11T07:25:29.962Z,78.99
2018-08-11T07:26:29.991Z,79.15
2018-08-11T07:27:29.932Z,79.35
2018-08-11T07:28:29.924Z,78.85
2018-08-11T07:29:30.020Z,76.39
2018-08-11T07:30:29.933Z,73.42
2018-08-11T07:31:30.199Z,77.86
2018-08-11T07:32:29.887Z,77.66
2018-08-11T07:33:29.863Z,74.49
2018-08-11T07:34:29.852Z,77.73
2018-08-11T07:35:29.839Z,77.02
2018-08-11T07:36:29.992Z,75.87
2018-08-11T07:37:29.824Z,72.34
2018-08-11T07:38:29.803Z,75.77
2018-08-11T07:39:29.801Z,72.75
2018-08-11T07:40:29.793Z,74.16
2018-08-11T07:41:29.768Z,73.96
2018-08-11T07:42:29.786Z,73.45
2018-08-11T07:43:29.780Z,70.32
2018-08-11T07:44:29.735Z,70.42
2018-08-11T07:45:29.733Z,69.11
2018-08-11T07:46:29.710Z,70.12
2018-08-11T07:47:30.331Z,70.26
2018-08-11T07:48:29.696Z,70.06
2018-08-11T07:49:29.679Z,75.57
2018-08-11T07:50:29.678Z,73.45
2018-08-11T07:51:29.663Z,71.94
2018-08-11T07:52:29.655Z,73.75
2018-08-11T07:53:29.669Z,70.09
2018-08-11T07:54:29.627Z,68.68
2018-08-11T07:55:29.613Z,69.08
2018-08-11T07:56:29.595Z,70.19
2018-08-11T07:57:29.593Z,72.51
2018-08-11T07:58:29.571Z,71.80
2018-08-11T07:59:29.598Z,69.35
2018-08-11T08:00:29.558Z,66.42
2018-08-11T08:01:29.606Z,72.78
2018-08-11T08:02:29.529Z,70.53
2018-08-11T08:03:29.521Z,69.38
2018-08-11T08:04:29.549Z,66.36
2018-08-11T08:05:29.508Z,66.94
2018-08-11T08:06:29.491Z,67.77
2018-08-11T08:07:29.473Z,66.53
2018-08-11T08:08:29.461Z,66.56
2018-08-11T08:09:29.586Z,67.34
2018-08-11T08:10:29.466Z,66.56
2018-08-11T08:11:29.427Z,67.97
2018-08-11T08:12:29.422Z,68.68
2018-08-11T08:13:29.404Z,70.56
2018-08-11T08:14:29.400Z,67.24
2018-08-11T08:15:29.381Z,66.63
2018-08-11T08:16:29.393Z,62.44
2018-08-11T08:17:29.368Z,66.94
2018-08-11T08:18:29.348Z,66.74
2018-08-11T08:19:29.343Z,68.95
2018-08-11T08:20:29.326Z,66.30
2018-08-11T08:21:29.346Z,64.96
2018-08-11T08:22:29.308Z,67.35
2018-08-11T08:23:29.294Z,58.90
2018-08-11T08:24:29.282Z,61.82
2018-08-11T08:25:29.268Z,57.26
2018-08-11T08:26:29.630Z,61.11
2018-08-11T08:27:29.247Z,62.29
2018-08-11T08:28:29.241Z,65.91
2018-08-11T08:29:29.227Z,64.67
2018-08-11T08:30:29.218Z,60.65
2018-08-11T08:31:29.204Z,64.57
2018-08-11T08:32:29.227Z,62.93
2018-08-11T08:33:29.409Z,63.53
2018-08-11T08:34:29.170Z,64.43
2018-08-11T08:35:29.163Z,57.89
2018-08-11T08:36:29.148Z,61.50
2018-08-11T08:37:29.140Z,61.36
2018-08-11T08:38:29.155Z,61.04
2018-08-11T08:39:29.160Z,59.44
2018-08-11T08:40:29.101Z,61.61
2018-08-11T08:41:29.093Z,59.20
2018-08-11T08:42:29.080Z,58.00
2018-08-11T08:43:29.095Z,58.20
2018-08-11T08:44:29.069Z,60.18
2018-08-11T08:45:29.047Z,60.28
2018-08-11T08:46:29.038Z,59.18
2018-08-11T08:47:29.073Z,59.15
2018-08-11T08:48:29.042Z,59.88
2018-08-11T08:49:29.012Z,55.57
2018-08-11T08:50:29.002Z,57.48
2018-08-11T08:51:28.982Z,61.91
2018-08-11T08:52:28.975Z,58.61
2018-08-11T08:53:28.969Z,61.61
2018-08-11T08:54:28.984Z,57.50
2018-08-11T08:55:28.947Z,59.28
2018-08-11T08:56:28.933Z,54.77
2018-08-11T08:57:28.922Z,55.77
2018-08-11T08:58:28.914Z,57.28
2018-08-11T08:59:28.899Z,58.85
2018-08-11T09:00:29.168Z,57.85
2018-08-11T09:01:28.881Z,60.95
2018-08-11T09:02:28.863Z,56.95
2018-08-11T09:03:28.858Z,58.32
2018-08-11T09:04:28.849Z,60.29
2018-08-11T09:05:28.840Z,57.39
2018-08-11T09:06:28.848Z,60.27
2018-08-11T09:07:28.807Z,49.95
2018-08-11T09:08:28.801Z,54.54
2018-08-11T09:09:28.784Z,55.34
2018-08-11T09:10:28.775Z,50.87
2018-08-11T09:11:28.801Z,56.04
2018-08-11T09:12:28.760Z,56.21
2018-08-11T09:13:28.744Z,48.45
2018-08-11T09:14:28.737Z,56.54
2018-08-11T09:15:28.729Z,54.57
2018-08-11T09:16:28.710Z,56.14
2018-08-11T09:17:28.739Z,55.87
2018-08-11T09:18:28.694Z,49.57
2018-08-11T09:19:28.733Z,51.20
2018-08-11T09:20:28.675Z,58.67
2018-08-11T09:21:28.653Z,53.39
2018-08-11T09:22:28.647Z,48.90
2018-08-11T09:23:28.662Z,60.39
2018-08-11T09:24:28.630Z,57.69
2018-08-11T09:25:28.611Z,56.02
2018-08-11T09:26:28.611Z,56.32
2018-08-11T09:27:28.588Z,56.02
2018-08-11T09:28:28.606Z,56.74
2018-08-11T09:29:29.907Z,55.47
2018-08-11T09:30:28.667Z,58.05
2018-08-11T09:31:28.546Z,55.85
2018-08-11T09:32:28.824Z,61.45
2018-08-11T09:33:28.553Z,54.35
2018-08-11T09:34:28.586Z,57.75
2018-08-11T09:35:28.499Z,59.92
2018-08-11T09:36:28.489Z,49.19
2018-08-11T09:37:28.644Z,56.79
2018-08-11T09:38:28.544Z,55.69
2018-08-11T09:39:28.488Z,56.16
2018-08-11T09:40:28.451Z,56.96
2018-08-11T09:41:28.443Z,56.37
2018-08-11T09:42:28.428Z,54.57
2018-08-11T09:43:28.414Z,56.77
2018-08-11T09:44:28.432Z,54.06
2018-08-11T09:45:28.396Z,52.34
2018-08-11T09:46:28.382Z,54.94
2018-08-11T09:47:28.370Z,56.31
2018-08-11T09:48:28.363Z,55.91
2018-08-11T09:49:28.379Z,53.39
2018-08-11T09:50:28.344Z,55.86
2018-08-11T09:51:28.330Z,55.66
2018-08-11T09:52:28.319Z,51.07
2018-08-11T09:53:28.315Z,50.57
2018-08-11T09:54:28.331Z,50.60
2018-08-11T09:55:28.290Z,52.00
2018-08-11T09:56:28.282Z,52.72
2018-08-11T09:57:28.262Z,54.54
2018-08-11T09:58:28.259Z,54.67
2018-08-11T09:59:28.238Z,48.17
2018-08-11T10:00:28.260Z,53.79
2018-08-11T10:01:28.224Z,57.09
2018-08-11T10:02:28.206Z,55.49
2018-08-11T10:03:28.204Z,56.09
2018-08-11T10:04:28.187Z,57.09
2018-08-11T10:05:28.179Z,55.99
2018-08-11T10:06:28.193Z,55.17
2018-08-11T10:07:28.154Z,53.37
2018-08-11T10:08:28.146Z,46.35
2018-08-11T10:09:28.132Z,48.22
2018-08-11T10:10:28.130Z,56.11
2018-08-11T10:11:28.139Z,57.58
2018-08-11T10:12:28.095Z,52.59
2018-08-11T10:13:28.096Z,52.89
2018-08-11T10:14:28.080Z,52.07
2018-08-11T10:15:28.069Z,50.99
2018-08-11T10:16:28.093Z,54.09
2018-08-11T10:17:28.047Z,45.90
2018-08-11T10:18:28.663Z,53.52
2018-08-11T10:19:28.026Z,51.32
2018-08-11T10:20:28.011Z,52.42
2018-08-11T10:21:28.008Z,55.51
2018-08-11T10:22:28.017Z,53.12
2018-08-11T10:23:27.980Z,53.09
2018-08-11T10:24:27.974Z,54.52
2018-08-11T10:25:27.955Z,54.74
2018-08-11T10:26:27.952Z,54.61
2018-08-11T10:27:27.965Z,49.65
2018-08-11T10:28:27.931Z,55.36
2018-08-11T10:29:27.910Z,55.97
2018-08-11T10:30:27.902Z,46.77
2018-08-11T10:31:27.892Z,54.29
2018-08-11T10:32:27.884Z,58.29
2018-08-11T10:33:27.899Z,59.69
2018-08-11T10:34:27.855Z,56.59
2018-08-11T10:35:27.856Z,56.96
2018-08-11T10:36:27.843Z,53.74
2018-08-11T10:37:27.856Z,54.84
2018-08-11T10:38:27.821Z,56.81
2018-08-11T10:39:27.800Z,53.39
2018-08-11T10:40:27.792Z,54.69
2018-08-11T10:41:27.789Z,51.29
2018-08-11T10:42:27.774Z,51.50
2018-08-11T10:43:27.782Z,51.70
2018-08-11T10:44:27.753Z,51.29
2018-08-11T10:45:27.737Z,42.91
2018-08-11T10:46:27.731Z,52.92
2018-08-11T10:47:27.717Z,54.61
2018-08-11T10:48:27.745Z,52.72
2018-08-11T10:49:27.697Z,56.14
2018-08-11T10:50:27.683Z,51.15
2018-08-11T10:51:27.675Z,52.47
2018-08-11T10:52:27.657Z,51.34
2018-08-11T10:53:27.655Z,52.55
2018-08-11T10:54:27.664Z,52.52
2018-08-11T10:55:27.629Z,51.32
2018-08-11T10:56:27.617Z,53.31
2018-08-11T10:57:27.609Z,52.19
2018-08-11T10:58:27.600Z,50.47
2018-08-11T10:59:27.604Z,53.04
2018-08-11T11:00:27.573Z,47.83
2018-08-11T11:01:27.574Z,53.52
2018-08-11T11:02:27.560Z,42.41
2018-08-11T11:03:27.539Z,47.09
2018-08-11T11:04:27.566Z,48.88
2018-08-11T11:05:27.521Z,46.37
2018-08-11T11:06:27.507Z,51.65
2018-08-11T11:07:27.505Z,47.17
2018-08-11T11:08:27.555Z,50.82
2018-08-11T11:09:27.480Z,45.48
2018-08-11T11:10:27.496Z,52.02
2018-08-11T11:11:27.455Z,48.34
2018-08-11T11:12:27.451Z,48.74
2018-08-11T11:13:27.436Z,48.64
2018-08-11T11:14:27.432Z,49.33
2018-08-11T11:15:27.447Z,42.49
2018-08-11T11:16:27.407Z,46.09
2018-08-11T11:17:27.394Z,46.00
2018-08-11T11:18:27.381Z,44.70
2018-08-11T11:19:27.381Z,41.79
2018-08-11T11:20:27.362Z,52.64
2018-08-11T11:21:27.378Z,46.05
2018-08-11T11:22:27.347Z,41.87
2018-08-11T11:23:27.327Z,48.71
2018-08-11T11:24:27.322Z,47.50
2018-08-11T11:25:27.309Z,47.30
2018-08-11T11:26:27.317Z,44.49
2018-08-11T11:27:27.298Z,43.70
2018-08-11T11:28:27.284Z,48.65
2018-08-11T11:29:27.273Z,43.96
2018-08-11T11:30:27.266Z,42.17
2018-08-11T11:31:27.281Z,38.09
2018-08-11T11:32:27.240Z,43.14
2018-08-11T11:33:27.234Z,45.62
2018-08-11T11:34:27.219Z,47.11
2018-08-11T11:35:27.212Z,42.52
2018-08-11T11:36:27.198Z,37.77
2018-08-11T11:37:27.214Z,48.97
2018-08-11T11:38:27.184Z,49.24
2018-08-11T11:39:27.178Z,45.75
2018-08-11T11:40:27.163Z,42.78
2018-08-11T11:41:27.154Z,41.89
2018-08-11T11:42:27.172Z,40.03
2018-08-11T11:43:27.244Z,37.52
2018-08-11T11:44:27.122Z,35.27
2018-08-11T11:45:27.111Z,47.05
2018-08-11T11:46:27.124Z,46.15
2018-08-11T11:47:27.089Z,50.13
2018-08-11T11:48:27.102Z,41.42
2018-08-11T11:49:27.066Z,40.42
2018-08-11T11:50:27.121Z,51.00
2018-08-11T11:51:27.142Z,51.59
2018-08-11T11:52:27.041Z,47.91
2018-08-11T11:53:27.782Z,51.20
2018-08-11T11:54:27.163Z,51.07
2018-08-11T11:55:27.005Z,38.05
2018-08-11T11:56:27.006Z,44.80
2018-08-11T11:57:26.980Z,42.41
2018-08-11T11:58:26.996Z,41.31
2018-08-11T11:59:26.959Z,50.82
2018-08-11T12:00:26.947Z,47.32
2018-08-11T12:01:26.940Z,51.28
2018-08-11T12:02:26.926Z,47.77
2018-08-11T12:03:26.943Z,46.06
2018-08-11T12:04:26.911Z,44.85
2018-08-11T12:05:27.194Z,47.90
2018-08-11T12:06:26.936Z,47.28
2018-08-11T12:07:26.871Z,44.68
2018-08-11T12:08:27.016Z,44.37
2018-08-11T12:09:26.943Z,39.22
2018-08-11T12:10:26.927Z,43.87
2018-08-11T12:11:26.832Z,44.07
2018-08-11T12:12:26.876Z,45.95
2018-08-11T12:13:26.831Z,42.29
2018-08-11T12:14:26.806Z,42.98
2018-08-11T12:15:26.791Z,43.48
2018-08-11T12:16:26.838Z,35.47
2018-08-11T12:17:26.775Z,37.07
2018-08-11T12:18:26.787Z,45.79
2018-08-11T12:19:26.821Z,38.58
2018-08-11T12:20:26.803Z,42.07
2018-08-11T12:21:26.770Z,44.87
2018-08-11T12:22:26.777Z,41.50
2018-08-11T12:23:26.705Z,45.74
2018-08-11T12:24:26.811Z,41.36
2018-08-11T12:25:26.689Z,45.42
2018-08-11T12:26:26.675Z,45.10
2018-08-11T12:27:26.664Z,44.19
2018-08-11T12:28:26.666Z,42.01
2018-08-11T12:29:27.501Z,42.13
2018-08-11T12:30:26.737Z,40.25
2018-08-11T12:31:26.676Z,46.79
2018-08-11T12:32:26.650Z,43.64
2018-08-11T12:33:26.645Z,42.25
2018-08-11T12:34:26.630Z,37.30
2018-08-11T12:35:26.759Z,43.38
2018-08-11T12:36:26.576Z,44.18
2018-08-11T12:37:26.561Z,40.50
2018-08-11T12:38:26.637Z,42.58
2018-08-11T12:39:26.605Z,42.79
2018-08-11T12:40:26.561Z,42.29
2018-08-11T12:41:26.549Z,42.69
2018-08-11T12:42:27.122Z,41.97
2018-08-11T12:43:26.906Z,42.17
2018-08-11T12:44:26.482Z,42.47
2018-08-11T12:45:26.854Z,42.85
2018-08-11T12:46:26.515Z,42.63
2018-08-11T12:47:26.494Z,44.39
2018-08-11T12:48:26.466Z,42.78
2018-08-11T12:49:26.446Z,42.66
2018-08-11T12:50:26.418Z,41.67
2018-08-11T12:51:27.057Z,32.04
2018-08-11T12:52:26.420Z,39.75